createdAt,value
2024-01-09T00:02:12.894Z,5.95
2024-01-09T00:04:40.463Z,6.18
2024-01-09T00:09:35.969Z,6.50
2024-01-09T00:12:03.959Z,5.82
2024-01-09T00:14:31.471Z,6.00
2024-01-09T00:16:59.206Z,6.35
2024-01-09T00:19:27.336Z,7.30
2024-01-09T00:21:57.171Z,7.10
2024-01-09T00:24:24.714Z,6.90
2024-01-09T00:26:52.332Z,7.82
2024-01-09T00:29:21.373Z,6.88
2024-01-09T00:31:48.967Z,7.10
2024-01-09T00:34:16.686Z,7.68
2024-01-09T00:36:45.624Z,7.50
2024-01-09T00:39:13.139Z,7.78
2024-01-09T00:44:07.940Z,6.30
2024-01-09T00:49:03.179Z,5.93
2024-01-09T00:51:30.849Z,5.43
2024-01-09T00:53:58.484Z,6.07
2024-01-09T00:56:26.075Z,6.38
2024-01-09T00:58:53.553Z,7.88
2024-01-09T01:03:48.961Z,6.63
2024-01-09T01:06:16.708Z,8.30
2024-01-09T01:08:44.362Z,7.55
2024-01-09T01:11:11.888Z,7.35
2024-01-09T01:16:06.937Z,5.60
2024-01-09T01:18:34.550Z,6.15
2024-01-09T01:21:02.116Z,6.85
2024-01-09T01:23:29.795Z,6.57
2024-01-09T01:25:57.425Z,6.70
2024-01-09T01:28:25.053Z,6.43
2024-01-09T01:30:52.713Z,6.32
2024-01-09T01:33:20.276Z,6.88
2024-01-09T01:35:47.845Z,6.68
2024-01-09T01:38:15.501Z,6.55
2024-01-09T01:40:43.208Z,7.07
2024-01-09T01:43:10.836Z,6.82
2024-01-09T01:45:38.352Z,6.55
2024-01-09T01:50:35.592Z,6.82
2024-01-09T01:53:05.619Z,6.88
2024-01-09T01:55:34.700Z,6.40
2024-01-09T01:58:04.004Z,7.13
2024-01-09T02:00:32.364Z,6.70
2024-01-09T02:03:00.148Z,6.93
2024-01-09T02:05:30.713Z,6.40
2024-01-09T02:07:59.294Z,7.10
2024-01-09T02:10:26.805Z,6.90
2024-01-09T02:12:55.352Z,7.30
2024-01-09T02:15:22.939Z,7.15
2024-01-09T02:17:50.955Z,6.75
2024-01-09T02:20:22.408Z,7.78
2024-01-09T02:22:51.115Z,6.78
2024-01-09T02:25:18.684Z,7.32
2024-01-09T02:28:03.038Z,7.25
2024-01-09T02:30:31.534Z,6.72
2024-01-09T02:32:59.236Z,7.13
2024-01-09T02:35:27.215Z,7.65
2024-01-09T02:37:54.917Z,7.10
2024-01-09T02:40:23.813Z,6.72
2024-01-09T02:42:52.509Z,7.20
2024-01-09T02:45:19.979Z,6.78
2024-01-09T02:50:16.248Z,7.40
2024-01-09T02:52:43.839Z,7.00
2024-01-09T02:55:11.340Z,6.55
2024-01-09T03:00:10.393Z,6.70
2024-01-09T03:02:38.694Z,6.90
2024-01-09T03:05:08.333Z,6.82
2024-01-09T03:07:36.245Z,7.10
2024-01-09T03:10:04.266Z,7.47
2024-01-09T03:12:31.832Z,6.93
2024-01-09T03:14:59.375Z,6.80
2024-01-09T03:17:27.066Z,6.70
2024-01-09T03:19:54.579Z,7.43
2024-01-09T03:27:16.804Z,6.78
2024-01-09T03:32:11.860Z,6.07
2024-01-09T03:34:43.299Z,7.32
2024-01-09T03:37:11.327Z,6.60
2024-01-09T03:39:38.843Z,6.95
2024-01-09T03:42:06.416Z,7.03
2024-01-09T03:44:34.159Z,7.00
2024-01-09T03:47:01.712Z,6.97
2024-01-09T03:49:29.308Z,7.22
2024-01-09T03:51:58.904Z,6.70
2024-01-09T03:54:26.344Z,6.68
2024-01-09T04:01:48.588Z,7.32
2024-01-09T04:09:13.632Z,7.47
2024-01-09T04:11:48.286Z,7.60
2024-01-09T04:14:16.154Z,6.93
2024-01-09T04:16:49.910Z,7.03
2024-01-09T04:19:17.522Z,7.00
2024-01-09T04:21:45.053Z,7.90
2024-01-09T04:26:39.955Z,6.30
2024-01-09T04:29:07.560Z,7.07
2024-01-09T04:31:35.086Z,7.70
2024-01-09T04:34:02.741Z,7.28
2024-01-09T04:36:30.242Z,7.50
2024-01-09T04:41:27.919Z,6.82
2024-01-09T04:43:55.621Z,6.95
2024-01-09T04:46:23.060Z,7.00
2024-01-09T04:51:18.111Z,6.65
2024-01-09T04:56:13.806Z,6.43
2024-01-09T04:58:41.299Z,7.35
2024-01-09T05:03:40.296Z,6.82
2024-01-09T05:06:07.969Z,7.05
2024-01-09T05:08:35.772Z,7.53
2024-01-09T05:11:03.815Z,7.30
2024-01-09T05:13:32.410Z,7.22
2024-01-09T05:15:59.930Z,7.47
2024-01-09T05:20:54.866Z,6.97
2024-01-09T05:23:22.393Z,7.25
2024-01-09T05:28:17.361Z,7.43
2024-01-09T05:30:44.981Z,7.45
2024-01-09T05:33:12.853Z,7.82
2024-01-09T05:35:40.470Z,7.43
2024-01-09T05:38:14.946Z,8.10
2024-01-09T05:40:47.768Z,7.75
2024-01-09T05:43:15.442Z,8.15
2024-01-09T05:45:42.997Z,8.30
2024-01-09T05:48:10.797Z,8.68
2024-01-09T05:50:38.436Z,7.95
2024-01-09T05:53:05.959Z,8.23
2024-01-09T06:00:28.017Z,7.63
2024-01-09T06:05:23.056Z,7.57
2024-01-09T06:07:50.727Z,8.18
2024-01-09T06:10:18.311Z,7.78
2024-01-09T06:12:45.886Z,8.40
2024-01-09T06:17:40.917Z,8.18
2024-01-09T06:20:09.047Z,8.90
2024-01-09T06:22:36.494Z,8.15
2024-01-09T06:27:31.687Z,8.35
2024-01-09T06:32:26.842Z,8.38
2024-01-09T06:34:54.423Z,7.82
2024-01-09T06:39:49.393Z,8.25
2024-01-09T06:42:17.188Z,8.77
2024-01-09T06:44:44.779Z,8.32
2024-01-09T06:47:12.346Z,8.13
2024-01-09T06:49:40.025Z,9.00
2024-01-09T06:52:07.648Z,7.97
2024-01-09T06:57:02.446Z,8.73
2024-01-09T06:59:30.056Z,8.80
2024-01-09T07:01:57.604Z,8.98
2024-01-09T07:04:25.552Z,9.10
2024-01-09T07:06:53.419Z,9.48
2024-01-09T07:09:21.065Z,9.02
2024-01-09T07:11:48.666Z,9.32
2024-01-09T07:14:16.277Z,9.43
2024-01-09T07:16:43.877Z,10.25
2024-01-09T07:19:11.526Z,9.85
2024-01-09T07:21:39.109Z,9.82
2024-01-09T07:24:06.778Z,9.20
2024-01-09T07:26:40.918Z,9.77
2024-01-09T07:29:09.430Z,9.90
2024-01-09T07:31:36.988Z,11.27
2024-01-09T07:34:04.901Z,9.93
2024-01-09T07:36:32.624Z,9.98
2024-01-09T07:41:27.882Z,10.90
2024-01-09T07:43:59.426Z,10.18
2024-01-09T07:46:28.126Z,10.13
2024-01-09T07:48:55.794Z,10.15
2024-01-09T07:51:23.368Z,10.93
2024-01-09T07:56:20.109Z,9.73
2024-01-09T07:58:47.918Z,10.57
2024-01-09T08:01:16.666Z,10.65
2024-01-09T08:03:44.374Z,10.30
2024-01-09T08:06:16.473Z,10.73
2024-01-09T08:08:47.268Z,11.18
2024-01-09T08:11:17.827Z,11.32
2024-01-09T08:13:45.570Z,11.27
2024-01-09T08:16:13.173Z,11.10
2024-01-09T08:18:40.966Z,11.50
2024-01-09T08:21:08.660Z,11.10
2024-01-09T08:23:37.025Z,11.30
2024-01-09T08:26:04.952Z,11.75
2024-01-09T08:28:32.537Z,11.65
2024-01-09T08:31:00.119Z,11.93
2024-01-09T08:33:32.042Z,12.18
2024-01-09T08:36:00.334Z,10.90
2024-01-09T08:38:27.991Z,11.15
2024-01-09T08:40:57.530Z,10.75
2024-01-09T08:43:25.548Z,12.35
2024-01-09T08:45:54.723Z,11.63
2024-01-09T08:48:23.855Z,12.35
2024-01-09T08:50:51.953Z,11.57
2024-01-09T08:53:19.621Z,12.20
2024-01-09T08:55:47.199Z,11.38
2024-01-09T08:58:14.750Z,12.27
2024-01-09T09:00:42.365Z,11.10
2024-01-09T09:03:10.110Z,12.32
2024-01-09T09:05:38.043Z,12.00
2024-01-09T09:08:05.835Z,12.57
2024-01-09T09:10:33.393Z,12.20
2024-01-09T09:15:28.270Z,11.77
2024-01-09T09:17:56.402Z,12.77
2024-01-09T09:20:24.288Z,12.55
2024-01-09T09:22:52.933Z,12.27
2024-01-09T09:25:20.540Z,12.43
2024-01-09T09:27:48.188Z,13.25
2024-01-09T09:30:15.972Z,12.35
2024-01-09T09:32:43.606Z,12.32
2024-01-09T09:35:11.349Z,12.50
2024-01-09T09:37:38.910Z,13.23
2024-01-09T09:42:36.658Z,11.93
2024-01-09T09:45:10.706Z,13.00
2024-01-09T09:47:40.182Z,13.48
2024-01-09T09:50:11.403Z,12.15
2024-01-09T09:52:43.589Z,12.05
2024-01-09T09:55:11.326Z,12.90
2024-01-09T09:57:39.157Z,13.65
2024-01-09T10:00:10.721Z,13.10
2024-01-09T10:02:52.433Z,12.40
2024-01-09T10:05:20.720Z,12.82
2024-01-09T10:07:51.523Z,13.32
2024-01-09T10:10:21.714Z,13.80
2024-01-09T10:12:49.715Z,13.90
2024-01-09T10:15:19.072Z,13.80
2024-01-09T10:17:47.586Z,12.95
2024-01-09T10:20:17.193Z,13.48
2024-01-09T10:22:45.024Z,14.20
2024-01-09T10:25:14.446Z,13.45
2024-01-09T10:27:42.441Z,14.60
2024-01-09T10:30:11.756Z,13.68
2024-01-09T10:32:45.006Z,13.60
2024-01-09T10:35:14.882Z,14.75
2024-01-09T10:37:45.816Z,14.80
2024-01-09T10:40:14.279Z,14.60
2024-01-09T10:42:48.775Z,13.05
2024-01-09T10:45:18.275Z,12.90
2024-01-09T10:47:46.994Z,13.57
2024-01-09T10:50:16.930Z,13.40
2024-01-09T10:52:45.990Z,14.02
2024-01-09T10:55:14.088Z,14.55
2024-01-09T10:57:42.712Z,13.50
2024-01-09T11:00:12.963Z,13.65
2024-01-09T11:02:41.631Z,13.27
2024-01-09T11:05:12.214Z,14.30
2024-01-09T11:07:44.153Z,13.38
2024-01-09T11:10:17.792Z,13.77
2024-01-09T11:12:50.147Z,13.43
2024-01-09T11:15:26.386Z,14.60
2024-01-09T11:17:59.505Z,14.82
2024-01-09T11:20:28.641Z,14.05
2024-01-09T11:22:56.345Z,14.30
2024-01-09T11:25:25.741Z,13.52
2024-01-09T11:27:55.041Z,13.82
2024-01-09T11:30:34.616Z,14.40
2024-01-09T11:33:33.927Z,14.00
2024-01-09T11:36:06.576Z,14.15
2024-01-09T11:38:35.476Z,13.90
2024-01-09T11:41:07.391Z,14.23
2024-01-09T11:44:03.862Z,14.57
2024-01-09T11:46:36.844Z,13.98
2024-01-09T11:49:06.658Z,13.48
2024-01-09T11:51:35.917Z,14.52
2024-01-09T11:54:05.955Z,14.15
2024-01-09T11:56:33.894Z,13.32
2024-01-09T11:59:02.294Z,13.20
2024-01-09T12:01:30.115Z,13.57
2024-01-09T12:03:58.654Z,13.70
2024-01-09T12:06:30.398Z,13.02
2024-01-09T12:08:59.180Z,12.75
2024-01-09T12:11:26.733Z,12.45
2024-01-09T12:14:04.138Z,11.65
2024-01-09T12:16:33.173Z,11.40
2024-01-09T12:19:02.558Z,12.82
2024-01-09T12:21:33.076Z,13.25
2024-01-09T12:24:19.564Z,13.40
2024-01-09T12:26:50.497Z,13.45
2024-01-09T12:29:18.506Z,12.98
2024-01-09T12:31:46.628Z,12.05
2024-01-09T12:34:14.404Z,11.15
2024-01-09T12:36:42.066Z,12.50
2024-01-09T12:41:42.389Z,11.68
2024-01-09T12:44:11.186Z,11.05
2024-01-09T12:46:42.301Z,12.38
2024-01-09T12:49:10.036Z,11.77
2024-01-09T12:51:37.588Z,12.18
2024-01-09T12:56:32.586Z,11.52
2024-01-09T12:59:00.090Z,12.02
2024-01-09T13:03:59.480Z,11.75
2024-01-09T13:06:27.491Z,11.90
2024-01-09T13:08:55.298Z,11.93
2024-01-09T13:11:23.026Z,11.52
2024-01-09T13:13:50.624Z,11.07
2024-01-09T13:16:19.493Z,11.23
2024-01-09T13:18:47.249Z,10.55
2024-01-09T13:21:14.803Z,10.65
2024-01-09T13:23:49.452Z,10.50
2024-01-09T13:26:20.316Z,11.05
2024-01-09T13:31:19.522Z,10.35
2024-01-09T13:33:47.372Z,9.82
2024-01-09T13:36:17.192Z,10.30
2024-01-09T13:38:46.738Z,11.48
2024-01-09T13:41:16.875Z,9.65
2024-01-09T13:43:44.837Z,10.25
2024-01-09T13:46:12.992Z,11.15
2024-01-09T13:48:42.088Z,10.85
2024-01-09T13:51:49.872Z,11.65
2024-01-09T13:53:58.015Z,11.85
2024-01-09T13:58:56.063Z,10.75
2024-01-09T14:01:30.464Z,12.00
2024-01-09T14:04:06.675Z,10.60
2024-01-09T14:06:34.537Z,10.85
2024-01-09T14:09:02.216Z,10.23
2024-01-09T14:11:29.790Z,11.18
2024-01-09T14:16:26.429Z,9.75
2024-01-09T14:18:54.474Z,9.77
2024-01-09T14:21:21.976Z,9.10
2024-01-09T14:23:50.249Z,8.57
2024-01-09T14:26:21.878Z,9.27
2024-01-09T14:28:49.777Z,9.43
2024-01-09T14:31:17.344Z,9.15
2024-01-09T14:36:12.377Z,8.75
2024-01-09T14:38:40.100Z,8.93
2024-01-09T14:41:11.776Z,8.95
2024-01-09T14:43:42.528Z,9.25
2024-01-09T14:46:16.887Z,8.75
2024-01-09T14:48:44.774Z,8.60
2024-01-09T14:51:12.278Z,7.63
2024-01-09T14:58:35.354Z,8.15
2024-01-09T15:01:03.246Z,8.20
2024-01-09T15:03:30.830Z,9.00
2024-01-09T15:05:58.430Z,8.90
2024-01-09T15:08:26.263Z,8.32
2024-01-09T15:10:54.739Z,8.30
2024-01-09T15:13:22.292Z,7.93
2024-01-09T15:15:49.895Z,8.35
2024-01-09T15:20:44.807Z,8.35
2024-01-09T15:25:41.672Z,8.18
2024-01-09T15:28:09.726Z,7.57
2024-01-09T15:30:37.385Z,8.13
2024-01-09T15:33:09.382Z,7.82
2024-01-09T15:35:37.960Z,7.97
2024-01-09T15:38:06.265Z,7.47
2024-01-09T15:40:34.019Z,8.07
2024-01-09T15:43:01.641Z,7.82
2024-01-09T15:50:26.142Z,7.97
2024-01-09T15:52:53.807Z,8.38
2024-01-09T15:55:21.445Z,7.70
2024-01-09T15:57:49.131Z,8.35
2024-01-09T16:00:17.916Z,7.53
2024-01-09T16:02:45.880Z,7.93
2024-01-09T16:05:14.229Z,8.15
2024-01-09T16:07:41.990Z,8.63
2024-01-09T16:10:10.344Z,8.07
2024-01-09T16:12:38.050Z,8.93
2024-01-09T16:15:06.077Z,8.98
2024-01-09T16:17:34.906Z,9.20
2024-01-09T16:20:02.956Z,8.77
2024-01-09T16:22:31.047Z,9.70
2024-01-09T16:24:59.373Z,10.25
2024-01-09T16:27:26.931Z,10.50
2024-01-09T16:32:23.160Z,10.98
2024-01-09T16:34:50.983Z,9.65
2024-01-09T16:37:18.488Z,10.35
2024-01-09T16:42:17.605Z,10.50
2024-01-09T16:44:45.177Z,9.88
2024-01-09T16:47:12.792Z,9.85
2024-01-09T16:49:43.445Z,11.10
2024-01-09T16:52:11.270Z,9.98
2024-01-09T16:54:39.399Z,10.25
2024-01-09T16:57:07.263Z,10.27
2024-01-09T16:59:34.794Z,11.25
2024-01-09T17:04:31.666Z,10.55
2024-01-09T17:06:59.203Z,9.52
2024-01-09T17:14:22.985Z,10.23
2024-01-09T17:16:53.304Z,10.05
2024-01-09T17:19:24.479Z,10.00
2024-01-09T17:21:52.456Z,10.32
2024-01-09T17:24:19.983Z,9.73
2024-01-09T17:29:15.008Z,11.05
2024-01-09T17:31:44.425Z,10.98
2024-01-09T17:34:12.529Z,10.13
2024-01-09T17:36:40.148Z,10.55
2024-01-09T17:39:10.088Z,10.20
2024-01-09T17:41:40.638Z,10.60
2024-01-09T17:44:08.726Z,10.25
2024-01-09T17:46:40.428Z,9.70
2024-01-09T17:49:08.307Z,9.82
2024-01-09T17:51:40.552Z,10.73
2024-01-09T17:54:08.222Z,10.65
2024-01-09T17:57:10.024Z,10.30
2024-01-09T17:59:40.235Z,10.43
2024-01-09T18:02:07.744Z,10.15
2024-01-09T18:04:38.468Z,10.32
2024-01-09T18:07:10.177Z,10.07
2024-01-09T18:09:37.937Z,10.68
2024-01-09T18:12:06.766Z,11.02
2024-01-09T18:14:34.326Z,10.40
2024-01-09T18:17:02.051Z,11.32
2024-01-09T18:19:29.917Z,10.32
2024-01-09T18:21:59.598Z,10.45
2024-01-09T18:24:27.402Z,11.40
2024-01-09T18:26:57.195Z,10.50
2024-01-09T18:29:24.949Z,11.07
2024-01-09T18:31:56.093Z,11.05
2024-01-09T18:34:24.209Z,10.65
2024-01-09T18:36:52.046Z,11.35
2024-01-09T18:39:23.275Z,10.93
2024-01-09T18:41:58.203Z,9.80
2024-01-09T18:44:28.095Z,10.55
2024-01-09T18:46:56.663Z,10.30
2024-01-09T18:49:25.802Z,11.02
2024-01-09T18:51:54.463Z,11.90
2024-01-09T18:54:24.892Z,11.55
2024-01-09T18:56:52.783Z,11.93
2024-01-09T18:59:26.029Z,10.63
2024-01-09T19:01:58.406Z,11.65
2024-01-09T19:04:27.592Z,11.85
2024-01-09T19:06:55.285Z,11.75
2024-01-09T19:09:23.755Z,12.65
2024-01-09T19:11:51.516Z,11.20
2024-01-09T19:14:19.627Z,12.25
2024-01-09T19:16:47.836Z,12.20
2024-01-09T19:19:17.236Z,11.50
2024-01-09T19:21:46.666Z,11.50
2024-01-09T19:24:17.389Z,12.00
2024-01-09T19:26:46.121Z,11.90
2024-01-09T19:29:17.133Z,11.77
2024-01-09T19:31:44.901Z,12.00
2024-01-09T19:34:12.964Z,12.30
2024-01-09T19:36:45.393Z,12.63
2024-01-09T19:39:13.197Z,12.18
2024-01-09T19:41:40.856Z,12.75
2024-01-09T19:44:09.098Z,13.38
2024-01-09T19:46:41.288Z,12.35
2024-01-09T19:49:09.030Z,13.45
2024-01-09T19:51:37.446Z,12.15
2024-01-09T19:54:10.902Z,12.57
2024-01-09T19:56:40.348Z,12.52
2024-01-09T20:01:36.786Z,12.88
2024-01-09T20:04:04.606Z,12.82
2024-01-09T20:06:32.525Z,12.75
2024-01-09T20:09:00.155Z,12.70
2024-01-09T20:11:31.506Z,12.48
2024-01-09T20:14:02.596Z,11.98
2024-01-09T20:16:30.480Z,12.40
2024-01-09T20:18:58.623Z,11.18
2024-01-09T20:21:29.999Z,11.63
2024-01-09T20:23:58.165Z,11.38
2024-01-09T20:26:33.437Z,11.30
2024-01-09T20:29:01.024Z,12.52
2024-01-09T20:31:31.836Z,12.45
2024-01-09T20:33:59.743Z,13.55
2024-01-09T20:36:27.909Z,12.15
2024-01-09T20:38:58.695Z,12.75
2024-01-09T20:41:28.874Z,12.20
2024-01-09T20:43:56.599Z,11.18
2024-01-09T20:46:24.729Z,11.85
2024-01-09T20:48:52.291Z,11.45
2024-01-09T20:51:19.784Z,12.20
2024-01-09T20:56:15.939Z,10.82
2024-01-09T20:58:43.609Z,10.70
2024-01-09T21:01:11.134Z,11.40
2024-01-09T21:03:38.842Z,10.60
2024-01-09T21:06:08.654Z,11.73
2024-01-09T21:08:36.189Z,11.80
2024-01-09T21:13:31.401Z,11.70
2024-01-09T21:16:00.893Z,11.85
2024-01-09T21:18:28.589Z,11.13
2024-01-09T21:20:57.604Z,11.80
2024-01-09T21:23:31.835Z,11.55
2024-01-09T21:26:05.597Z,12.38
2024-01-09T21:28:33.127Z,11.93
2024-01-09T21:31:00.736Z,12.02
2024-01-09T21:33:28.436Z,12.82
2024-01-09T21:35:56.138Z,12.02
2024-01-09T21:38:23.808Z,11.90
2024-01-09T21:40:57.941Z,11.82
2024-01-09T21:43:26.875Z,12.43
2024-01-09T21:45:54.553Z,11.82
2024-01-09T21:48:22.205Z,11.90
2024-01-09T21:50:49.962Z,12.27
2024-01-09T21:53:17.587Z,12.18
2024-01-09T21:55:45.377Z,12.48
2024-01-09T21:58:13.918Z,12.85
2024-01-09T22:00:41.608Z,11.55
2024-01-09T22:03:09.316Z,11.55
2024-01-09T22:05:37.011Z,12.23
2024-01-09T22:08:04.829Z,11.10
2024-01-09T22:10:33.247Z,12.48
2024-01-09T22:13:00.891Z,12.05
2024-01-09T22:17:55.853Z,11.57
2024-01-09T22:25:54.747Z,12.45
2024-01-09T22:28:22.325Z,13.50
2024-01-09T22:30:50.468Z,11.45
2024-01-09T22:33:18.845Z,12.23
2024-01-09T22:35:47.568Z,12.43
2024-01-09T22:38:15.437Z,12.57
2024-01-09T22:40:43.132Z,12.05
2024-01-09T22:43:10.832Z,12.65
2024-01-09T22:45:38.416Z,12.15
2024-01-09T22:50:33.851Z,12.05
2024-01-09T22:53:02.253Z,12.95
2024-01-09T22:55:29.791Z,13.25
2024-01-09T23:00:26.838Z,13.68
2024-01-09T23:02:57.450Z,12.30
2024-01-09T23:05:26.942Z,12.43
2024-01-09T23:07:55.263Z,12.98
2024-01-09T23:10:23.053Z,13.50
2024-01-09T23:12:50.512Z,12.75
2024-01-09T23:17:45.671Z,13.85
2024-01-09T23:20:15.596Z,14.73
2024-01-09T23:22:43.417Z,14.07
2024-01-09T23:25:12.696Z,13.77
2024-01-09T23:27:40.335Z,13.50
2024-01-09T23:30:08.750Z,14.43
2024-01-09T23:32:36.494Z,13.85
2024-01-09T23:35:04.652Z,12.73
2024-01-09T23:37:34.696Z,13.23
2024-01-09T23:40:02.419Z,13.57
2024-01-09T23:42:29.984Z,13.23
2024-01-09T23:47:24.904Z,13.88
2024-01-09T23:52:20.156Z,13.07
2024-01-09T23:54:48.224Z,13.57
2024-01-09T23:57:15.860Z,14.15
2024-01-09T23:59:43.429Z,13.43
